createdAt,value
2024-02-29T00:01:41.507Z,7.60
2024-02-29T00:03:43.482Z,7.60
2024-02-29T00:05:46.044Z,7.82
2024-02-29T00:07:48.160Z,7.85
2024-02-29T00:09:50.303Z,7.69
2024-02-29T00:11:55.846Z,7.61
2024-02-29T00:13:57.855Z,7.59
2024-02-29T00:15:59.999Z,7.63
2024-02-29T00:18:02.291Z,7.63
2024-02-29T00:20:05.651Z,7.59
2024-02-29T00:22:08.001Z,7.67
2024-02-29T00:24:10.279Z,7.68
2024-02-29T00:26:18.005Z,7.72
2024-02-29T00:28:23.638Z,7.75
2024-02-29T00:30:25.596Z,7.73
2024-02-29T00:32:27.671Z,7.73
2024-02-29T00:34:30.249Z,7.69
2024-02-29T00:36:32.243Z,7.48
2024-02-29T00:38:34.263Z,7.39
2024-02-29T00:40:37.010Z,7.25
2024-02-29T00:42:39.155Z,7.27
2024-02-29T00:44:41.134Z,7.26
2024-02-29T00:46:43.160Z,7.30
2024-02-29T00:48:45.290Z,7.42
2024-02-29T00:50:47.357Z,7.47
2024-02-29T00:52:49.461Z,7.37
2024-02-29T00:54:51.665Z,7.31
2024-02-29T00:56:53.859Z,7.28
2024-02-29T00:58:55.798Z,7.39
2024-02-29T01:00:58.065Z,7.44
2024-02-29T01:03:00.152Z,7.46
2024-02-29T01:05:02.652Z,7.52
2024-02-29T01:07:05.018Z,7.54
2024-02-29T01:09:07.243Z,7.59
2024-02-29T01:11:09.371Z,7.60
2024-02-29T01:13:11.435Z,7.62
2024-02-29T01:15:14.905Z,7.64
2024-02-29T01:17:17.025Z,7.67
2024-02-29T01:19:19.321Z,7.70
2024-02-29T01:21:21.616Z,7.71
2024-02-29T01:23:23.643Z,7.63
2024-02-29T01:25:25.872Z,7.71
2024-02-29T01:27:28.422Z,7.73
2024-02-29T01:29:30.397Z,7.68
2024-02-29T01:31:32.322Z,7.56
2024-02-29T01:33:34.452Z,7.46
2024-02-29T01:35:36.686Z,7.43
2024-02-29T01:37:38.707Z,7.49
2024-02-29T01:39:40.728Z,7.57
2024-02-29T01:41:43.432Z,7.60
2024-02-29T01:43:55.467Z,7.58
2024-02-29T01:46:15.516Z,7.62
2024-02-29T01:48:18.060Z,7.64
2024-02-29T01:50:21.291Z,7.56
2024-02-29T01:52:25.161Z,7.42
2024-02-29T01:54:27.230Z,7.52
2024-02-29T01:56:29.398Z,7.46
2024-02-29T01:58:33.756Z,7.39
2024-02-29T02:00:35.794Z,7.34
2024-02-29T02:02:39.888Z,7.31
2024-02-29T02:04:42.160Z,7.20
2024-02-29T02:06:44.263Z,7.28
2024-02-29T02:08:46.339Z,7.39
2024-02-29T02:10:48.566Z,7.47
2024-02-29T02:12:50.633Z,7.52
2024-02-29T02:14:53.052Z,7.59
2024-02-29T02:16:55.637Z,7.62
2024-02-29T02:18:57.643Z,7.59
2024-02-29T02:20:59.666Z,7.61
2024-02-29T02:23:01.851Z,7.62
2024-02-29T02:25:04.799Z,7.60
2024-02-29T02:27:07.192Z,7.61
2024-02-29T02:29:09.217Z,7.56
2024-02-29T02:31:11.322Z,7.56
2024-02-29T02:33:15.632Z,7.53
2024-02-29T02:35:17.821Z,7.47
2024-02-29T02:37:19.993Z,7.25
2024-02-29T02:39:22.563Z,7.02
2024-02-29T02:41:27.721Z,7.00
2024-02-29T02:43:29.901Z,6.97
2024-02-29T02:45:31.977Z,7.10
2024-02-29T02:47:34.473Z,7.14
2024-02-29T02:49:36.642Z,7.24
2024-02-29T02:51:38.693Z,7.37
2024-02-29T02:53:40.628Z,7.34
2024-02-29T02:55:42.670Z,7.41
2024-02-29T02:57:47.106Z,7.38
2024-02-29T02:59:49.363Z,7.38
2024-02-29T03:01:51.981Z,7.44
2024-02-29T03:03:54.442Z,7.44
2024-02-29T03:05:56.535Z,7.48
2024-02-29T03:07:59.071Z,7.41
2024-02-29T03:10:01.226Z,7.41
2024-02-29T03:12:03.498Z,7.44
2024-02-29T03:14:05.744Z,7.43
2024-02-29T03:16:07.756Z,7.40
2024-02-29T03:18:09.936Z,7.34
2024-02-29T03:20:15.342Z,7.33
2024-02-29T03:22:17.357Z,7.47
2024-02-29T03:24:19.470Z,7.45
2024-02-29T03:26:32.915Z,7.35
2024-02-29T03:28:37.913Z,7.35
2024-02-29T03:30:40.017Z,7.37
2024-02-29T03:32:42.550Z,7.37
2024-02-29T03:34:44.577Z,7.40
2024-02-29T03:36:46.786Z,7.35
2024-02-29T03:38:48.823Z,7.35
2024-02-29T03:40:52.477Z,7.38
2024-02-29T03:42:54.600Z,7.46
2024-02-29T03:44:58.206Z,7.42
2024-02-29T03:47:00.372Z,7.40
2024-02-29T03:49:02.448Z,7.32
2024-02-29T03:51:05.032Z,7.33
2024-02-29T03:53:07.089Z,7.29
2024-02-29T03:55:09.551Z,7.28
2024-02-29T03:57:11.664Z,7.34
2024-02-29T03:59:14.231Z,7.34
2024-02-29T04:01:16.511Z,7.44
2024-02-29T04:03:19.048Z,7.44
2024-02-29T04:05:25.380Z,7.40
2024-02-29T04:07:27.482Z,7.38
2024-02-29T04:09:29.901Z,7.35
2024-02-29T04:11:31.901Z,7.35
2024-02-29T04:13:33.949Z,7.15
2024-02-29T04:15:36.007Z,6.97
2024-02-29T04:17:38.115Z,6.97
2024-02-29T04:19:40.214Z,6.86
2024-02-29T04:21:46.951Z,6.82
2024-02-29T04:23:49.058Z,6.86
2024-02-29T04:25:51.067Z,6.93
2024-02-29T04:27:53.213Z,6.97
2024-02-29T04:29:57.093Z,7.01
2024-02-29T04:31:59.645Z,7.04
2024-02-29T04:34:01.852Z,7.16
2024-02-29T04:36:04.530Z,7.19
2024-02-29T04:38:07.010Z,7.24
2024-02-29T04:40:11.837Z,7.23
2024-02-29T04:42:14.013Z,7.28
2024-02-29T04:44:16.086Z,7.34
2024-02-29T04:46:18.356Z,7.26
2024-02-29T04:48:20.403Z,7.25
2024-02-29T04:50:22.419Z,7.32
2024-02-29T04:52:24.412Z,7.32
2024-02-29T04:54:26.494Z,7.34
2024-02-29T04:56:28.581Z,7.37
2024-02-29T04:58:30.598Z,7.37
2024-02-29T05:00:32.590Z,7.35
2024-02-29T05:02:37.446Z,7.34
2024-02-29T05:04:39.387Z,7.30
2024-02-29T05:06:41.392Z,7.22
2024-02-29T05:08:44.288Z,7.20
2024-02-29T05:10:46.239Z,7.27
2024-02-29T05:12:51.626Z,7.26
2024-02-29T05:14:54.312Z,7.18
2024-02-29T05:16:56.449Z,7.09
2024-02-29T05:18:58.386Z,7.14
2024-02-29T05:21:00.790Z,7.12
2024-02-29T05:23:03.488Z,7.11
2024-02-29T05:25:08.417Z,7.07
2024-02-29T05:27:10.549Z,7.13
2024-02-29T05:29:12.527Z,7.09
2024-02-29T05:31:14.659Z,6.82
2024-02-29T05:33:16.878Z,6.75
2024-02-29T05:35:19.096Z,6.90
2024-02-29T05:37:21.240Z,7.09
2024-02-29T05:39:24.557Z,7.20
2024-02-29T05:41:26.537Z,7.35
2024-02-29T05:43:29.300Z,7.40
2024-02-29T05:45:32.516Z,7.40
2024-02-29T05:47:34.474Z,7.37
2024-02-29T05:49:36.963Z,7.45
2024-02-29T05:51:38.982Z,7.33
2024-02-29T05:53:41.025Z,7.41
2024-02-29T05:55:43.821Z,7.17
2024-02-29T05:57:45.734Z,6.99
2024-02-29T05:59:47.834Z,6.76
2024-02-29T06:01:49.888Z,6.67
2024-02-29T06:03:52.040Z,6.79
2024-02-29T06:05:54.306Z,7.02
2024-02-29T06:07:56.189Z,7.18
2024-02-29T06:09:58.293Z,7.24
2024-02-29T06:12:00.351Z,7.30
2024-02-29T06:14:03.856Z,7.28
2024-02-29T06:16:08.386Z,7.22
2024-02-29T06:18:12.347Z,7.26
2024-02-29T06:20:14.890Z,7.23
2024-02-29T06:22:17.205Z,7.30
2024-02-29T06:24:22.406Z,7.29
2024-02-29T06:26:25.438Z,7.39
2024-02-29T06:28:27.567Z,7.47
2024-02-29T06:30:35.669Z,7.63
2024-02-29T06:32:37.992Z,7.65
2024-02-29T06:34:40.111Z,7.68
2024-02-29T06:36:42.094Z,7.73
2024-02-29T06:38:44.061Z,7.74
2024-02-29T06:40:47.218Z,7.68
2024-02-29T06:42:50.117Z,7.77
2024-02-29T06:44:54.072Z,7.73
2024-02-29T06:46:56.041Z,7.77
2024-02-29T06:48:58.129Z,7.81
2024-02-29T06:51:00.301Z,7.86
2024-02-29T06:53:02.397Z,7.84
2024-02-29T06:55:11.287Z,7.96
2024-02-29T06:57:13.771Z,7.94
2024-02-29T06:59:15.728Z,7.90
2024-02-29T07:01:21.335Z,7.91
2024-02-29T07:03:23.699Z,7.88
2024-02-29T07:05:28.010Z,7.92
2024-02-29T07:07:29.973Z,8.03
2024-02-29T07:09:32.194Z,8.05
2024-02-29T07:11:41.955Z,8.09
2024-02-29T07:13:44.153Z,7.83
2024-02-29T07:15:46.112Z,7.69
2024-02-29T07:17:49.637Z,7.54
2024-02-29T07:19:51.765Z,7.56
2024-02-29T07:21:54.406Z,7.61
2024-02-29T07:23:56.640Z,7.70
2024-02-29T07:26:34.717Z,7.69
2024-02-29T07:28:36.998Z,7.54
2024-02-29T07:30:39.226Z,7.38
2024-02-29T07:32:41.306Z,7.33
2024-02-29T07:34:43.335Z,7.28
2024-02-29T07:36:45.577Z,7.37
2024-02-29T07:38:48.054Z,7.54
2024-02-29T07:40:51.067Z,7.62
2024-02-29T07:42:53.111Z,7.34
2024-02-29T07:44:55.205Z,7.44
2024-02-29T07:46:57.255Z,7.57
2024-02-29T07:49:00.101Z,7.57
2024-02-29T07:51:02.332Z,7.45
2024-02-29T07:53:04.443Z,7.47
2024-02-29T07:55:07.067Z,7.55
2024-02-29T07:57:09.156Z,7.67
2024-02-29T07:59:11.229Z,7.61
2024-02-29T08:01:13.397Z,7.56
2024-02-29T08:03:15.343Z,7.64
2024-02-29T08:05:17.593Z,7.48
2024-02-29T08:07:20.028Z,7.67
2024-02-29T08:09:22.314Z,7.73
2024-02-29T08:11:24.717Z,7.68
2024-02-29T08:13:26.889Z,7.55
2024-02-29T08:15:29.132Z,7.50
2024-02-29T08:17:31.223Z,7.59
2024-02-29T08:19:33.245Z,7.74
2024-02-29T08:21:37.414Z,7.72
2024-02-29T08:23:40.609Z,7.68
2024-02-29T08:25:43.200Z,7.63
2024-02-29T08:27:45.282Z,7.65
2024-02-29T08:29:47.284Z,7.59
2024-02-29T08:31:49.580Z,7.64
2024-02-29T08:33:51.658Z,7.56
2024-02-29T08:35:53.687Z,7.55
2024-02-29T08:37:57.883Z,7.49
2024-02-29T08:40:00.247Z,7.73
2024-02-29T08:42:02.854Z,7.68
2024-02-29T08:44:04.939Z,7.79
2024-02-29T08:46:06.921Z,7.92
2024-02-29T08:48:08.893Z,7.84
2024-02-29T08:50:11.413Z,7.97
2024-02-29T08:52:13.420Z,7.93
2024-02-29T08:54:15.821Z,8.00
2024-02-29T08:56:18.212Z,7.97
2024-02-29T08:58:21.310Z,7.93
2024-02-29T09:00:25.044Z,7.98
2024-02-29T09:02:27.227Z,8.12
2024-02-29T09:04:29.357Z,8.22
2024-02-29T09:06:40.834Z,7.77
2024-02-29T09:08:44.310Z,7.82
2024-02-29T09:11:01.557Z,7.79
2024-02-29T09:13:20.420Z,7.81
2024-02-29T09:15:30.020Z,7.59
2024-02-29T09:17:32.145Z,7.57
2024-02-29T09:19:37.940Z,7.54
2024-02-29T09:21:41.208Z,7.61
2024-02-29T09:23:43.168Z,7.72
2024-02-29T09:25:45.251Z,7.91
2024-02-29T09:27:47.387Z,8.13
2024-02-29T09:29:49.300Z,7.90
2024-02-29T09:31:51.262Z,7.89
2024-02-29T09:33:54.966Z,7.84
2024-02-29T09:35:59.458Z,7.98
2024-02-29T09:38:01.926Z,8.02
2024-02-29T09:40:05.569Z,8.14
2024-02-29T09:42:14.029Z,8.22
2024-02-29T09:44:18.179Z,8.44
2024-02-29T09:46:20.761Z,8.72
2024-02-29T09:48:23.517Z,8.36
2024-02-29T09:50:25.438Z,7.96
2024-02-29T09:52:27.686Z,8.03
2024-02-29T09:54:31.733Z,8.16
2024-02-29T09:56:34.779Z,7.96
2024-02-29T09:58:37.360Z,8.16
2024-02-29T10:00:39.438Z,8.50
2024-02-29T10:02:45.352Z,8.64
2024-02-29T10:04:50.098Z,8.72
2024-02-29T10:06:52.097Z,8.79
2024-02-29T10:08:54.001Z,8.96
2024-02-29T10:10:56.189Z,8.94
2024-02-29T10:12:58.437Z,8.92
2024-02-29T10:15:00.774Z,8.90
2024-02-29T10:17:04.861Z,8.88
2024-02-29T10:19:13.829Z,8.97
2024-02-29T10:21:16.367Z,8.86
2024-02-29T10:23:18.755Z,8.92
2024-02-29T10:25:22.654Z,8.67
2024-02-29T10:27:25.085Z,8.59
2024-02-29T10:29:27.042Z,8.03
2024-02-29T10:31:29.024Z,7.83
2024-02-29T10:33:31.706Z,7.96
2024-02-29T10:35:33.769Z,8.11
2024-02-29T10:37:35.800Z,7.98
2024-02-29T10:39:39.790Z,8.06
2024-02-29T10:41:50.115Z,8.18
2024-02-29T10:43:52.715Z,8.24
2024-02-29T10:45:54.746Z,8.35
2024-02-29T10:48:31.970Z,8.33
2024-02-29T10:50:47.893Z,8.30
2024-02-29T10:52:53.465Z,8.51
2024-02-29T10:55:15.776Z,8.58
2024-02-29T10:57:23.420Z,8.62
2024-02-29T10:59:27.197Z,8.46
2024-02-29T11:01:33.342Z,8.41
2024-02-29T11:03:36.132Z,8.26
2024-02-29T11:05:39.161Z,8.38
2024-02-29T11:07:41.365Z,8.51
2024-02-29T11:09:43.592Z,8.64
2024-02-29T11:11:49.521Z,8.64
2024-02-29T11:14:08.815Z,8.57
2024-02-29T11:16:12.549Z,8.33
2024-02-29T11:18:29.130Z,8.33
2024-02-29T11:20:32.206Z,8.49
2024-02-29T11:22:37.216Z,8.51
2024-02-29T11:24:41.842Z,8.32
2024-02-29T11:26:43.951Z,8.31
2024-02-29T11:28:50.358Z,8.42
2024-02-29T11:30:52.952Z,8.22
2024-02-29T11:32:55.437Z,8.33
2024-02-29T11:34:57.841Z,8.44
2024-02-29T11:37:00.309Z,8.42
2024-02-29T11:39:02.364Z,8.41
2024-02-29T11:41:18.485Z,8.53
2024-02-29T11:43:21.979Z,8.74
2024-02-29T11:46:18.835Z,8.80
2024-02-29T11:48:20.889Z,8.59
2024-02-29T11:50:22.984Z,8.62
2024-02-29T11:52:24.916Z,8.74
2024-02-29T11:54:27.384Z,8.82
2024-02-29T11:56:31.189Z,8.89
2024-02-29T11:58:34.846Z,8.53
2024-02-29T12:00:38.880Z,8.34
2024-02-29T12:02:45.367Z,8.28
2024-02-29T12:04:47.871Z,8.39
2024-02-29T12:06:50.141Z,8.31
2024-02-29T12:08:52.301Z,8.44
2024-02-29T12:11:01.309Z,8.56
2024-02-29T12:13:03.670Z,8.71
2024-02-29T12:15:11.759Z,8.89
2024-02-29T12:17:13.791Z,8.88
2024-02-29T12:19:17.724Z,8.89
2024-02-29T12:21:20.030Z,8.83
2024-02-29T12:23:22.389Z,8.89
2024-02-29T12:25:25.372Z,8.67
2024-02-29T12:27:27.406Z,8.49
2024-02-29T12:29:29.435Z,8.28
2024-02-29T12:31:31.555Z,8.26
2024-02-29T12:33:41.584Z,8.31
2024-02-29T12:35:44.310Z,8.48
2024-02-29T12:37:46.748Z,8.65
2024-02-29T12:39:58.376Z,8.76
2024-02-29T12:42:00.565Z,8.81
2024-02-29T12:44:05.373Z,8.87
2024-02-29T12:46:07.862Z,8.89
2024-02-29T12:48:10.682Z,8.93
2024-02-29T12:50:13.567Z,8.90
2024-02-29T12:52:16.065Z,8.97
2024-02-29T12:54:18.038Z,8.85
2024-02-29T12:56:20.080Z,8.83
2024-02-29T12:58:22.745Z,8.63
2024-02-29T13:00:26.494Z,8.65
2024-02-29T13:02:28.614Z,8.34
2024-02-29T13:04:30.702Z,8.13
2024-02-29T13:06:32.972Z,8.15
2024-02-29T13:08:35.429Z,8.27
2024-02-29T13:10:37.813Z,8.04
2024-02-29T13:12:49.667Z,7.98
2024-02-29T13:14:56.432Z,8.20
2024-02-29T13:16:58.711Z,8.05
2024-02-29T13:19:00.731Z,8.17
2024-02-29T13:21:05.571Z,8.17
2024-02-29T13:23:09.065Z,8.45
2024-02-29T13:25:11.660Z,8.57
2024-02-29T13:27:13.817Z,8.49
2024-02-29T13:29:16.561Z,8.50
2024-02-29T13:31:18.830Z,8.63
2024-02-29T13:33:21.006Z,8.64
2024-02-29T13:35:23.079Z,8.67
2024-02-29T13:37:26.042Z,8.65
2024-02-29T13:39:28.406Z,8.59
2024-02-29T13:41:30.407Z,8.49
2024-02-29T13:43:32.936Z,8.41
2024-02-29T13:45:38.963Z,8.55
2024-02-29T13:47:50.352Z,8.58
2024-02-29T13:49:52.345Z,8.56
2024-02-29T13:51:57.561Z,8.53
2024-02-29T13:53:59.704Z,8.55
2024-02-29T13:56:01.715Z,8.49
2024-02-29T13:58:04.982Z,8.51
2024-02-29T14:00:09.860Z,8.66
2024-02-29T14:02:13.222Z,8.63
2024-02-29T14:04:17.000Z,8.56
2024-02-29T14:06:20.083Z,8.59
2024-02-29T14:08:22.143Z,8.36
2024-02-29T14:10:24.265Z,8.38
2024-02-29T14:12:28.453Z,8.39
2024-02-29T14:14:30.877Z,8.51
2024-02-29T14:16:33.764Z,8.30
2024-02-29T14:18:35.798Z,8.31
2024-02-29T14:20:50.073Z,8.43
2024-02-29T14:22:52.216Z,8.36
2024-02-29T14:24:54.225Z,8.24
2024-02-29T14:26:56.963Z,7.98
2024-02-29T14:29:00.651Z,8.04
2024-02-29T14:31:04.482Z,8.14
2024-02-29T14:33:07.194Z,8.36
2024-02-29T14:35:10.931Z,8.27
2024-02-29T14:37:13.114Z,8.05
2024-02-29T14:39:15.829Z,7.93
2024-02-29T14:41:20.814Z,8.07
2024-02-29T14:43:22.954Z,7.97
2024-02-29T14:45:25.015Z,7.99
2024-02-29T14:47:29.555Z,8.02
2024-02-29T14:49:31.947Z,7.97
2024-02-29T14:51:34.075Z,7.98
2024-02-29T14:53:36.137Z,7.98
2024-02-29T14:55:38.094Z,8.14
2024-02-29T14:57:40.296Z,8.19
2024-02-29T14:59:42.386Z,8.03
2024-02-29T15:01:44.550Z,8.04
2024-02-29T15:03:46.698Z,8.03
2024-02-29T15:05:49.202Z,7.90
2024-02-29T15:07:51.946Z,7.97
2024-02-29T15:09:55.315Z,8.05
2024-02-29T15:11:57.372Z,7.89
2024-02-29T15:14:00.485Z,8.04
2024-02-29T15:16:02.717Z,7.94
2024-02-29T15:18:15.712Z,7.99
2024-02-29T15:20:17.987Z,8.08
2024-02-29T15:22:22.378Z,7.96
2024-02-29T15:24:25.791Z,8.04
2024-02-29T15:26:29.100Z,8.02
2024-02-29T15:28:33.225Z,8.01
2024-02-29T15:30:41.672Z,8.09
2024-02-29T15:32:46.568Z,7.93
2024-02-29T15:34:51.185Z,7.96
2024-02-29T15:37:01.464Z,7.89
2024-02-29T15:39:04.237Z,7.81
2024-02-29T15:41:06.285Z,7.85
2024-02-29T15:43:08.272Z,7.97
2024-02-29T15:45:11.967Z,8.17
2024-02-29T15:47:14.025Z,8.11
2024-02-29T15:49:16.264Z,8.03
2024-02-29T15:51:18.469Z,8.06
2024-02-29T15:53:20.440Z,7.89
2024-02-29T15:55:24.417Z,7.98
2024-02-29T15:57:27.150Z,7.77
2024-02-29T15:59:30.461Z,7.72
2024-02-29T16:01:32.597Z,7.62
2024-02-29T16:03:34.685Z,7.67
2024-02-29T16:05:36.952Z,7.78
2024-02-29T16:07:39.141Z,7.79
2024-02-29T16:09:44.394Z,7.88
2024-02-29T16:11:46.686Z,7.90
2024-02-29T16:13:50.209Z,7.96
2024-02-29T16:15:52.324Z,8.03
2024-02-29T16:17:55.523Z,8.03
2024-02-29T16:19:57.693Z,7.94
2024-02-29T16:22:00.074Z,7.90
2024-02-29T16:24:02.012Z,8.01
2024-02-29T16:26:05.453Z,8.08
2024-02-29T16:28:07.511Z,8.05
2024-02-29T16:30:09.745Z,7.99
2024-02-29T16:32:11.847Z,7.96
2024-02-29T16:34:14.093Z,7.96
2024-02-29T16:36:16.511Z,8.03
2024-02-29T16:38:18.476Z,8.04
2024-02-29T16:40:20.475Z,8.04
2024-02-29T16:42:22.518Z,8.03
2024-02-29T16:44:27.576Z,7.96
2024-02-29T16:46:29.909Z,8.01
2024-02-29T16:48:32.179Z,7.96
2024-02-29T16:50:34.214Z,7.96
2024-02-29T16:52:36.207Z,7.92
2024-02-29T16:54:38.166Z,7.78
2024-02-29T16:56:43.670Z,7.86
2024-02-29T16:58:47.001Z,7.85
2024-02-29T17:00:49.160Z,7.83
2024-02-29T17:02:51.132Z,7.85
2024-02-29T17:04:53.156Z,7.94
2024-02-29T17:06:55.148Z,7.94
2024-02-29T17:08:57.263Z,7.93
2024-02-29T17:10:59.381Z,7.92
2024-02-29T17:13:01.538Z,7.89
2024-02-29T17:15:04.582Z,7.87
2024-02-29T17:17:09.330Z,7.84
2024-02-29T17:19:11.598Z,7.82
2024-02-29T17:21:15.633Z,7.87
2024-02-29T17:23:18.370Z,7.89
2024-02-29T17:25:20.632Z,7.87
2024-02-29T17:27:24.745Z,7.92
2024-02-29T17:29:26.845Z,7.91
2024-02-29T17:31:28.999Z,7.81
2024-02-29T17:33:30.972Z,7.85
2024-02-29T17:35:34.323Z,7.89
2024-02-29T17:37:36.437Z,7.93
2024-02-29T17:39:38.688Z,8.05
2024-02-29T17:41:40.760Z,7.96
2024-02-29T17:43:43.973Z,7.98
2024-02-29T17:45:46.967Z,7.97
2024-02-29T17:47:50.847Z,8.01
2024-02-29T17:49:52.851Z,7.87
2024-02-29T17:51:55.024Z,7.85
2024-02-29T17:53:57.394Z,7.92
2024-02-29T17:56:00.161Z,7.88
2024-02-29T17:58:02.138Z,7.90
2024-02-29T18:00:07.340Z,7.94
2024-02-29T18:02:09.796Z,7.99
2024-02-29T18:04:12.000Z,8.02
2024-02-29T18:06:14.348Z,8.01
2024-02-29T18:08:16.491Z,7.91
2024-02-29T18:10:19.212Z,7.77
2024-02-29T18:12:21.332Z,7.65
2024-02-29T18:14:23.588Z,7.64
2024-02-29T18:16:25.705Z,7.62
2024-02-29T18:18:27.827Z,7.74
2024-02-29T18:20:29.861Z,7.65
2024-02-29T18:22:31.991Z,7.56
2024-02-29T18:24:34.075Z,7.61
2024-02-29T18:26:36.268Z,7.76
2024-02-29T18:28:38.695Z,7.75
2024-02-29T18:30:41.569Z,7.88
2024-02-29T18:32:43.847Z,7.87
2024-02-29T18:34:46.016Z,7.83
2024-02-29T18:36:48.179Z,7.93
2024-02-29T18:38:50.214Z,7.98
2024-02-29T18:40:52.202Z,7.93
2024-02-29T18:42:54.296Z,7.81
2024-02-29T18:44:59.342Z,7.79
2024-02-29T18:47:01.748Z,7.84
2024-02-29T18:49:04.646Z,7.85
2024-02-29T18:51:08.197Z,7.78
2024-02-29T18:53:11.120Z,7.72
2024-02-29T18:55:13.457Z,7.79
2024-02-29T18:57:15.537Z,7.67
2024-02-29T18:59:18.613Z,7.62
2024-02-29T19:01:21.129Z,7.60
2024-02-29T19:03:23.233Z,7.69
2024-02-29T19:05:28.393Z,7.58
2024-02-29T19:07:30.568Z,7.56
2024-02-29T19:09:32.992Z,7.67
2024-02-29T19:11:35.584Z,7.67
2024-02-29T19:13:37.725Z,7.71
2024-02-29T19:15:40.502Z,7.75
2024-02-29T19:17:42.771Z,7.69
2024-02-29T19:19:44.847Z,7.54
2024-02-29T19:22:05.116Z,7.55
2024-02-29T19:24:11.502Z,7.41
2024-02-29T19:26:13.659Z,7.59
2024-02-29T19:28:18.702Z,7.67
2024-02-29T19:30:23.199Z,7.69
2024-02-29T19:32:27.272Z,7.67
2024-02-29T19:34:29.319Z,7.65
2024-02-29T19:36:32.439Z,7.70
2024-02-29T19:38:34.439Z,7.79
2024-02-29T19:40:36.529Z,7.82
2024-02-29T19:42:41.789Z,7.82
2024-02-29T19:44:43.724Z,7.81
2024-02-29T19:46:46.596Z,7.82
2024-02-29T19:48:48.644Z,7.83
2024-02-29T19:50:52.386Z,7.74
2024-02-29T19:52:55.325Z,7.72
2024-02-29T19:54:57.460Z,7.78
2024-02-29T19:56:59.566Z,7.77
2024-02-29T19:59:01.513Z,7.94
2024-02-29T20:01:05.174Z,7.93
2024-02-29T20:03:08.149Z,7.93
2024-02-29T20:05:11.712Z,7.89
2024-02-29T20:07:16.605Z,7.87
2024-02-29T20:09:18.863Z,7.72
2024-02-29T20:11:20.955Z,7.74
2024-02-29T20:13:23.044Z,7.81
2024-02-29T20:15:25.240Z,7.86
2024-02-29T20:17:27.614Z,7.92
2024-02-29T20:19:31.138Z,7.86
2024-02-29T20:21:33.389Z,7.88
2024-02-29T20:23:35.762Z,7.90
2024-02-29T20:25:38.151Z,7.93
2024-02-29T20:27:54.280Z,7.91
2024-02-29T20:29:56.768Z,7.70
2024-02-29T20:31:58.890Z,7.75
2024-02-29T20:34:01.351Z,7.86
2024-02-29T20:36:06.866Z,7.91
2024-02-29T20:38:13.515Z,7.90
2024-02-29T20:40:17.840Z,7.98
2024-02-29T20:42:20.329Z,7.98
2024-02-29T20:44:22.293Z,8.04
2024-02-29T20:46:24.452Z,8.00
2024-02-29T20:48:26.468Z,7.97
2024-02-29T20:50:30.499Z,8.02
2024-02-29T20:52:32.591Z,7.99
2024-02-29T20:54:34.757Z,7.93
2024-02-29T20:56:36.962Z,8.02
2024-02-29T20:58:38.920Z,8.05
2024-02-29T21:00:41.317Z,8.00
2024-02-29T21:02:43.625Z,8.02
2024-02-29T21:04:45.746Z,7.97
2024-02-29T21:06:50.051Z,7.96
2024-02-29T21:08:52.692Z,7.97
2024-02-29T21:10:54.788Z,7.96
2024-02-29T21:12:57.462Z,8.01
2024-02-29T21:14:59.639Z,8.01
2024-02-29T21:17:02.443Z,7.99
2024-02-29T21:19:05.014Z,7.96
2024-02-29T21:21:11.253Z,7.91
2024-02-29T21:23:13.329Z,7.88
2024-02-29T21:25:15.573Z,7.84
2024-02-29T21:27:17.689Z,7.73
2024-02-29T21:29:19.721Z,7.72
2024-02-29T21:31:21.997Z,7.73
2024-02-29T21:33:29.655Z,7.81
2024-02-29T21:35:32.276Z,7.74
2024-02-29T21:37:34.329Z,7.68
2024-02-29T21:39:44.168Z,7.71
2024-02-29T21:41:47.276Z,7.62
2024-02-29T21:43:54.617Z,7.61
2024-02-29T21:46:01.616Z,7.62
2024-02-29T21:48:04.124Z,7.67
2024-02-29T21:50:06.957Z,7.52
2024-02-29T21:52:09.133Z,7.63
2024-02-29T21:54:11.208Z,7.71
2024-02-29T21:56:13.652Z,7.83
2024-02-29T21:58:15.680Z,7.83
2024-02-29T22:00:18.110Z,7.81
2024-02-29T22:02:20.189Z,7.77
2024-02-29T22:04:23.034Z,7.75
2024-02-29T22:06:25.165Z,7.84
2024-02-29T22:08:27.246Z,7.94
2024-02-29T22:10:29.623Z,8.02
2024-02-29T22:12:31.663Z,7.90
2024-02-29T22:14:33.753Z,7.88
2024-02-29T22:16:44.692Z,7.88
2024-02-29T22:18:47.544Z,7.88
2024-02-29T22:20:50.039Z,7.93
2024-02-29T22:22:52.301Z,7.88
2024-02-29T22:24:56.148Z,7.87
2024-02-29T22:26:58.905Z,7.89
2024-02-29T22:29:01.151Z,8.01
2024-02-29T22:31:04.102Z,7.99
2024-02-29T22:33:06.918Z,7.87
2024-02-29T22:35:09.301Z,7.88
2024-02-29T22:37:11.309Z,7.89
2024-02-29T22:39:13.300Z,7.84
2024-02-29T22:41:18.109Z,7.85
2024-02-29T22:43:21.283Z,7.74
2024-02-29T22:45:23.642Z,7.77
2024-02-29T22:47:25.787Z,7.92
2024-02-29T22:49:28.095Z,7.88
2024-02-29T22:51:31.100Z,7.79
2024-02-29T22:53:33.076Z,7.73
2024-02-29T22:55:35.954Z,7.86
2024-02-29T22:57:38.076Z,7.92
2024-02-29T22:59:40.076Z,7.93
2024-02-29T23:01:46.768Z,7.82
2024-02-29T23:03:49.170Z,7.76
2024-02-29T23:05:51.273Z,7.73
2024-02-29T23:07:53.889Z,7.79
2024-02-29T23:09:56.419Z,7.84
2024-02-29T23:12:00.841Z,7.97
2024-02-29T23:14:02.892Z,7.98
2024-02-29T23:16:05.308Z,7.86
2024-02-29T23:18:07.856Z,7.78
2024-02-29T23:20:14.101Z,7.79
2024-02-29T23:22:16.074Z,7.78
2024-02-29T23:24:18.028Z,7.74
2024-02-29T23:26:22.350Z,7.77
2024-02-29T23:28:24.784Z,7.81
2024-02-29T23:30:26.891Z,7.81
2024-02-29T23:32:29.110Z,7.82
2024-02-29T23:34:31.077Z,7.83
2024-02-29T23:36:33.228Z,7.81
2024-02-29T23:38:35.300Z,7.76
2024-02-29T23:40:37.419Z,7.79
2024-02-29T23:42:39.436Z,7.77
2024-02-29T23:44:41.502Z,7.75
2024-02-29T23:46:43.800Z,7.84
2024-02-29T23:48:45.855Z,7.88
2024-02-29T23:50:47.985Z,7.85
2024-02-29T23:52:51.976Z,7.71
2024-02-29T23:54:54.060Z,7.61
2024-02-29T23:56:58.223Z,7.71
2024-02-29T23:59:00.227Z,7.63
